createdAt,value
2022-10-15T00:01:10.659Z,99941.34
2022-10-15T00:03:39.434Z,99949.94
2022-10-15T00:06:18.015Z,99950.13
2022-10-15T00:08:46.185Z,99940.19
2022-10-15T00:11:16.204Z,99934.97
2022-10-15T00:13:43.827Z,99930.88
2022-10-15T00:16:14.802Z,99937.41
2022-10-15T00:18:42.195Z,99926.19
2022-10-15T00:21:10.900Z,99927.06
2022-10-15T00:23:38.231Z,99926.34
2022-10-15T00:26:09.154Z,99934.44
2022-10-15T00:28:36.220Z,99933.13
2022-10-15T00:31:05.276Z,99925.84
2022-10-15T00:33:31.971Z,99915.50
2022-10-15T00:36:00.745Z,99924.34
2022-10-15T00:38:28.643Z,99929.22
2022-10-15T00:40:55.322Z,99929.97
2022-10-15T00:43:55.825Z,99927.75
2022-10-15T00:46:25.528Z,99937.88
2022-10-15T00:48:58.750Z,99926.88
2022-10-15T00:51:31.143Z,99920.31
2022-10-15T00:53:58.887Z,99934.28
2022-10-15T00:56:27.609Z,99926.38
2022-10-15T00:58:55.964Z,99923.94
2022-10-15T01:01:25.477Z,99932.03
2022-10-15T01:03:54.412Z,99935.66
2022-10-15T01:06:21.134Z,99934.31
2022-10-15T01:08:47.782Z,99930.94
2022-10-15T01:11:37.795Z,99932.59
2022-10-15T01:14:23.435Z,99929.81
2022-10-15T01:17:01.686Z,99926.22
2022-10-15T01:19:57.819Z,99923.34
2022-10-15T01:22:41.911Z,99930.75
2022-10-15T01:25:55.563Z,99928.56
2022-10-15T01:29:04.913Z,99923.19
2022-10-15T01:31:50.948Z,99925.34
2022-10-15T01:34:58.254Z,99924.03
2022-10-15T01:37:41.259Z,99925.78
2022-10-15T01:40:23.732Z,99931.34
2022-10-15T01:42:56.941Z,99934.13
2022-10-15T01:45:33.201Z,99930.25
2022-10-15T01:48:13.694Z,99930.59
2022-10-15T01:50:48.598Z,99935.03
2022-10-15T01:53:19.914Z,99938.06
2022-10-15T01:55:48.514Z,99938.84
2022-10-15T01:58:17.764Z,99932.38
2022-10-15T02:00:44.854Z,99932.25
2022-10-15T02:03:11.569Z,99927.41
2022-10-15T02:05:44.823Z,99931.16
2022-10-15T02:08:20.634Z,99929.56
2022-10-15T02:11:03.815Z,99930.34
2022-10-15T02:13:46.277Z,99924.78
2022-10-15T02:16:17.068Z,99927.91
2022-10-15T02:19:15.510Z,99922.00
2022-10-15T02:21:49.947Z,99924.28
2022-10-15T02:24:23.508Z,99912.56
2022-10-15T02:26:53.662Z,99908.84
2022-10-15T02:29:23.477Z,99912.91
2022-10-15T02:31:51.455Z,99916.63
2022-10-15T02:34:22.032Z,99920.81
2022-10-15T02:36:49.866Z,99920.81
2022-10-15T02:39:24.080Z,99903.66
2022-10-15T02:41:53.425Z,99913.19
2022-10-15T02:44:20.676Z,99917.13
2022-10-15T02:46:47.795Z,99915.88
2022-10-15T02:49:16.024Z,99910.03
2022-10-15T02:51:43.373Z,99908.81
2022-10-15T02:54:10.623Z,99908.97
2022-10-15T02:56:39.295Z,99904.09
2022-10-15T02:59:07.088Z,99904.00
2022-10-15T03:01:34.461Z,99911.81
2022-10-15T03:04:02.801Z,99908.38
2022-10-15T03:06:31.273Z,99915.88
2022-10-15T03:08:57.987Z,99913.75
2022-10-15T03:11:24.561Z,99900.38
2022-10-15T03:13:51.332Z,99906.69
2022-10-15T03:16:18.419Z,99899.31
2022-10-15T03:18:47.274Z,99910.97
2022-10-15T03:21:13.991Z,99899.03
2022-10-15T03:23:42.348Z,99903.75
2022-10-15T03:26:17.670Z,99900.97
2022-10-15T03:28:44.509Z,99897.78
2022-10-15T03:31:16.165Z,99902.16
2022-10-15T03:33:46.825Z,99909.31
2022-10-15T03:36:13.491Z,99908.13
2022-10-15T03:38:40.033Z,99893.88
2022-10-15T03:41:11.354Z,99894.66
2022-10-15T03:43:42.946Z,99892.88
2022-10-15T03:46:10.575Z,99885.91
2022-10-15T03:48:41.706Z,99884.16
2022-10-15T03:51:10.702Z,99880.09
2022-10-15T03:53:39.175Z,99869.81
2022-10-15T03:56:06.793Z,99876.91
2022-10-15T03:58:36.950Z,99866.72
2022-10-15T04:01:14.595Z,99872.88
2022-10-15T04:03:41.469Z,99871.25
2022-10-15T04:06:08.833Z,99876.81
2022-10-15T04:08:36.665Z,99875.81
2022-10-15T04:11:17.724Z,99870.84
2022-10-15T04:13:49.010Z,99869.31
2022-10-15T04:16:16.207Z,99867.38
2022-10-15T04:18:42.814Z,99874.47
2022-10-15T04:21:09.829Z,99884.47
2022-10-15T04:23:37.056Z,99873.84
2022-10-15T04:26:20.668Z,99881.09
2022-10-15T04:28:49.989Z,99890.69
2022-10-15T04:31:18.365Z,99899.03
2022-10-15T04:33:49.079Z,99890.19
2022-10-15T04:39:01.671Z,99894.16
2022-10-15T04:41:37.320Z,99893.56
2022-10-15T04:44:08.072Z,99883.16
2022-10-15T04:46:34.883Z,99890.72
2022-10-15T04:49:10.188Z,99894.47
2022-10-15T04:51:38.235Z,99899.31
2022-10-15T04:54:15.180Z,99890.38
2022-10-15T04:57:00.335Z,99898.69
2022-10-15T04:59:27.410Z,99888.59
2022-10-15T05:02:12.638Z,99887.09
2022-10-15T05:04:39.638Z,99893.72
2022-10-15T05:07:06.952Z,99891.38
2022-10-15T05:09:37.062Z,99889.69
2022-10-15T05:12:04.566Z,99886.13
2022-10-15T05:14:31.076Z,99881.41
2022-10-15T05:17:30.804Z,99883.81
2022-10-15T05:19:58.737Z,99893.88
2022-10-15T05:22:27.914Z,99897.34
2022-10-15T05:24:58.645Z,99894.97
2022-10-15T05:27:27.845Z,99893.63
2022-10-15T05:29:54.357Z,99890.63
2022-10-15T05:34:50.849Z,99883.19
2022-10-15T05:37:17.831Z,99884.97
2022-10-15T05:39:44.543Z,99887.72
2022-10-15T05:42:11.672Z,99874.19
2022-10-15T05:44:41.871Z,99872.88
2022-10-15T05:47:11.764Z,99878.41
2022-10-15T05:49:39.105Z,99878.22
2022-10-15T05:52:12.395Z,99867.28
2022-10-15T05:54:59.330Z,99880.50
2022-10-15T05:57:25.942Z,99870.66
2022-10-15T05:59:52.486Z,99873.38
2022-10-15T06:02:20.121Z,99875.63
2022-10-15T06:04:48.399Z,99886.13
2022-10-15T06:07:15.762Z,99893.13
2022-10-15T06:09:42.310Z,99889.00
2022-10-15T06:12:09.166Z,99898.97
2022-10-15T06:14:35.762Z,99898.00
2022-10-15T06:17:04.254Z,99900.94
2022-10-15T06:19:30.945Z,99896.47
2022-10-15T06:21:57.671Z,99893.69
2022-10-15T06:24:24.305Z,99891.50
2022-10-15T06:26:50.881Z,99899.25
2022-10-15T06:29:17.591Z,99896.22
2022-10-15T06:31:44.189Z,99906.47
2022-10-15T06:34:10.833Z,99908.16
2022-10-15T06:36:38.138Z,99909.50
2022-10-15T06:39:04.905Z,99911.75
2022-10-15T06:41:31.854Z,99915.91
2022-10-15T06:43:58.441Z,99919.50
2022-10-15T06:46:25.016Z,99910.84
2022-10-15T06:48:51.801Z,99922.44
2022-10-15T06:51:18.383Z,99926.88
2022-10-15T06:53:49.701Z,99919.41
2022-10-15T06:56:16.156Z,99919.75
2022-10-15T06:58:44.907Z,99923.47
2022-10-15T07:01:11.474Z,99923.81
2022-10-15T07:03:39.007Z,99933.22
2022-10-15T07:06:09.175Z,99926.34
2022-10-15T07:08:36.513Z,99936.09
2022-10-15T07:11:09.203Z,99934.06
2022-10-15T07:13:35.913Z,99935.41
2022-10-15T07:16:05.718Z,99934.00
2022-10-15T07:18:34.208Z,99938.38
2022-10-15T07:21:01.417Z,99932.75
2022-10-15T07:23:28.505Z,99936.09
2022-10-15T07:25:59.020Z,99938.28
2022-10-15T07:28:27.075Z,99933.91
2022-10-15T07:30:53.664Z,99940.22
2022-10-15T07:33:20.623Z,99935.78
2022-10-15T07:36:07.885Z,99938.47
2022-10-15T07:38:53.048Z,99933.59
2022-10-15T07:41:20.121Z,99943.69
2022-10-15T07:43:46.812Z,99939.06
2022-10-15T07:46:13.415Z,99932.94
2022-10-15T07:48:40.278Z,99934.19
2022-10-15T07:51:07.879Z,99928.25
2022-10-15T07:53:34.874Z,99931.00
2022-10-15T07:56:06.149Z,99920.31
2022-10-15T07:58:34.686Z,99923.19
2022-10-15T08:01:05.261Z,99930.59
2022-10-15T08:03:32.216Z,99929.09
2022-10-15T08:06:03.743Z,99922.75
2022-10-15T08:08:30.723Z,99921.84
2022-10-15T08:10:57.541Z,99917.22
2022-10-15T08:13:24.890Z,99926.53
2022-10-15T08:15:57.624Z,99925.88
2022-10-15T08:18:27.547Z,99917.31
2022-10-15T08:20:54.318Z,99914.28
2022-10-15T08:23:20.981Z,99908.88
2022-10-15T08:25:47.601Z,99914.78
2022-10-15T08:28:15.385Z,99910.56
2022-10-15T08:30:41.981Z,99920.59
2022-10-15T08:33:12.635Z,99918.81
2022-10-15T08:35:43.843Z,99925.47
2022-10-15T08:38:14.809Z,99925.03
2022-10-15T08:40:54.608Z,99934.31
2022-10-15T08:43:42.317Z,99929.31
2022-10-15T08:46:39.286Z,99939.44
2022-10-15T08:49:21.975Z,99926.97
2022-10-15T08:51:54.570Z,99921.50
2022-10-15T08:54:21.273Z,99922.59
2022-10-15T08:56:54.527Z,99919.06
2022-10-15T08:59:27.365Z,99911.97
2022-10-15T09:02:22.597Z,99911.53
2022-10-15T09:05:14.065Z,99910.28
2022-10-15T09:07:50.822Z,99908.72
2022-10-15T09:10:47.975Z,99915.22
2022-10-15T09:13:40.253Z,99915.81
2022-10-15T09:16:15.209Z,99908.34
2022-10-15T09:18:46.862Z,99905.06
2022-10-15T09:21:14.582Z,99897.63
2022-10-15T09:23:43.707Z,99900.94
2022-10-15T09:26:31.825Z,99897.56
2022-10-15T09:29:05.429Z,99892.97
2022-10-15T09:31:43.353Z,99892.72
2022-10-15T09:34:19.813Z,99878.81
2022-10-15T09:36:54.827Z,99875.53
2022-10-15T09:40:02.210Z,99887.22
2022-10-15T09:42:35.896Z,99879.84
2022-10-15T09:45:07.095Z,99881.75
2022-10-15T09:47:35.703Z,99880.84
2022-10-15T09:50:05.837Z,99872.44
2022-10-15T09:52:47.605Z,99867.75
2022-10-15T09:55:29.266Z,99864.22
2022-10-15T09:58:01.447Z,99862.09
2022-10-15T10:00:56.726Z,99864.13
2022-10-15T10:03:26.955Z,99864.34
2022-10-15T10:06:24.306Z,99858.34
2022-10-15T10:08:55.545Z,99853.34
2022-10-15T10:11:25.072Z,99846.66
2022-10-15T10:13:57.851Z,99844.84
2022-10-15T10:16:26.253Z,99837.88
2022-10-15T10:19:12.869Z,99838.97
2022-10-15T10:21:42.660Z,99831.22
2022-10-15T10:24:24.643Z,99840.94
2022-10-15T10:26:58.682Z,99842.63
2022-10-15T10:29:35.473Z,99832.72
2022-10-15T10:32:19.237Z,99831.34
2022-10-15T10:34:51.501Z,99833.88
2022-10-15T10:37:19.779Z,99828.81
2022-10-15T10:39:52.806Z,99825.03
2022-10-15T10:42:22.394Z,99824.00
2022-10-15T10:44:48.935Z,99814.28
2022-10-15T10:47:18.565Z,99820.16
2022-10-15T10:49:47.995Z,99817.06
2022-10-15T10:52:37.218Z,99820.56
2022-10-15T10:55:29.155Z,99818.75
2022-10-15T10:57:59.547Z,99814.34
2022-10-15T11:00:39.733Z,99804.66
2022-10-15T11:03:19.776Z,99807.97
2022-10-15T11:05:50.437Z,99808.25
2022-10-15T11:09:08.403Z,99808.56
2022-10-15T11:11:41.001Z,99817.66
2022-10-15T11:14:26.179Z,99807.28
2022-10-15T11:17:21.711Z,99804.78
2022-10-15T11:20:24.892Z,99816.44
2022-10-15T11:22:52.512Z,99814.50
2022-10-15T11:25:40.170Z,99818.22
2022-10-15T11:28:37.215Z,99808.47
2022-10-15T11:31:25.369Z,99803.78
2022-10-15T11:34:10.981Z,99799.56
2022-10-15T11:37:19.069Z,99792.03
2022-10-15T11:40:17.768Z,99802.53
2022-10-15T11:42:58.235Z,99807.06
2022-10-15T11:45:52.020Z,99799.22
2022-10-15T11:48:40.201Z,99793.13
2022-10-15T11:51:28.135Z,99786.41
2022-10-15T11:54:04.924Z,99770.59
2022-10-15T11:56:38.748Z,99771.47
2022-10-15T11:59:32.753Z,99778.09
2022-10-15T12:02:14.876Z,99787.56
2022-10-15T12:04:47.560Z,99780.84
2022-10-15T12:07:25.810Z,99773.13
2022-10-15T12:09:57.014Z,99774.84
2022-10-15T12:12:59.830Z,99774.59
2022-10-15T12:15:38.827Z,99780.63
2022-10-15T12:18:28.357Z,99767.47
2022-10-15T12:20:55.551Z,99773.44
2022-10-15T12:23:23.760Z,99749.28
2022-10-15T12:25:50.908Z,99759.88
2022-10-15T12:28:21.446Z,99756.38
2022-10-15T12:30:55.810Z,99757.09
2022-10-15T12:33:28.336Z,99758.75
2022-10-15T12:36:09.252Z,99755.31
2022-10-15T12:38:40.019Z,99751.25
2022-10-15T12:41:13.121Z,99747.16
2022-10-15T12:44:03.628Z,99745.47
2022-10-15T12:46:38.618Z,99748.53
2022-10-15T12:49:40.673Z,99745.16
2022-10-15T12:52:44.435Z,99743.84
2022-10-15T12:55:22.925Z,99746.34
2022-10-15T12:57:58.470Z,99743.84
2022-10-15T13:00:39.733Z,99750.56
2022-10-15T13:03:17.078Z,99745.28
2022-10-15T13:05:44.408Z,99742.81
2022-10-15T13:08:23.282Z,99732.31
2022-10-15T13:10:59.161Z,99738.47
2022-10-15T13:13:29.625Z,99738.53
2022-10-15T13:16:01.647Z,99734.84
2022-10-15T13:18:31.319Z,99740.72
2022-10-15T13:20:58.841Z,99746.28
2022-10-15T13:23:30.447Z,99749.59
2022-10-15T13:26:19.735Z,99736.69
2022-10-15T13:28:51.272Z,99741.16
2022-10-15T13:31:27.545Z,99751.53
2022-10-15T13:34:23.823Z,99760.16
2022-10-15T13:36:50.789Z,99747.88
2022-10-15T13:39:36.189Z,99750.44
2022-10-15T13:42:17.676Z,99742.31
2022-10-15T13:45:13.400Z,99748.44
2022-10-15T13:47:42.478Z,99743.50
2022-10-15T13:50:26.077Z,99741.88
2022-10-15T13:53:14.609Z,99744.13
2022-10-15T13:55:47.050Z,99738.09
2022-10-15T13:58:33.266Z,99737.03
2022-10-15T14:01:10.664Z,99736.47
2022-10-15T14:03:39.266Z,99728.94
2022-10-15T14:06:20.691Z,99730.31
2022-10-15T14:08:49.912Z,99727.00
2022-10-15T14:11:20.364Z,99731.47
2022-10-15T14:13:49.225Z,99727.53
2022-10-15T14:16:24.434Z,99726.19
2022-10-15T14:19:16.415Z,99715.56
2022-10-15T14:21:47.089Z,99725.34
2022-10-15T14:24:22.722Z,99723.09
2022-10-15T14:26:49.786Z,99735.63
2022-10-15T14:29:22.795Z,99737.63
2022-10-15T14:31:49.581Z,99738.16
2022-10-15T14:34:33.848Z,99748.19
2022-10-15T14:37:01.476Z,99749.28
2022-10-15T14:39:36.363Z,99739.22
2022-10-15T14:42:06.092Z,99748.38
2022-10-15T14:44:46.800Z,99742.22
2022-10-15T14:47:25.677Z,99751.56
2022-10-15T14:49:59.859Z,99760.75
2022-10-15T14:52:30.289Z,99759.38
2022-10-15T14:55:09.339Z,99758.56
2022-10-15T14:57:41.433Z,99766.28
2022-10-15T15:00:22.724Z,99776.63
2022-10-15T15:02:49.872Z,99776.63
2022-10-15T15:05:20.829Z,99786.91
2022-10-15T15:07:50.279Z,99785.53
2022-10-15T15:10:17.531Z,99783.97
2022-10-15T15:12:49.917Z,99789.75
2022-10-15T15:15:19.961Z,99781.97
2022-10-15T15:17:48.659Z,99782.59
2022-10-15T15:20:16.946Z,99786.53
2022-10-15T15:22:43.792Z,99781.47
2022-10-15T15:25:35.332Z,99787.25
2022-10-15T15:28:01.994Z,99787.00
2022-10-15T15:30:31.769Z,99792.81
2022-10-15T15:33:00.469Z,99793.44
2022-10-15T15:35:44.764Z,99785.31
2022-10-15T15:38:11.945Z,99785.31
2022-10-15T15:40:38.561Z,99795.03
2022-10-15T15:43:05.312Z,99799.75
2022-10-15T15:45:31.938Z,99807.81
2022-10-15T15:48:02.048Z,99806.16
2022-10-15T15:50:29.179Z,99810.84
2022-10-15T15:52:55.849Z,99812.56
2022-10-15T15:55:23.070Z,99807.69
2022-10-15T15:57:49.639Z,99798.03
2022-10-15T16:00:16.663Z,99813.34
2022-10-15T16:02:43.586Z,99804.16
2022-10-15T16:05:14.307Z,99813.84
2022-10-15T16:07:41.755Z,99821.91
2022-10-15T16:10:11.749Z,99822.97
2022-10-15T16:12:39.928Z,99827.47
2022-10-15T16:15:09.043Z,99824.72
2022-10-15T16:17:38.371Z,99840.97
2022-10-15T16:20:06.208Z,99834.53
2022-10-15T16:22:32.913Z,99841.78
2022-10-15T16:24:59.595Z,99839.31
2022-10-15T16:27:27.130Z,99839.22
2022-10-15T16:29:54.140Z,99858.13
2022-10-15T16:32:20.783Z,99869.59
2022-10-15T16:34:47.372Z,99879.97
2022-10-15T16:37:14.788Z,99875.16
2022-10-15T16:39:41.415Z,99879.69
2022-10-15T16:42:09.270Z,99875.00
2022-10-15T16:44:36.035Z,99880.97
2022-10-15T16:47:02.680Z,99881.75
2022-10-15T16:49:29.312Z,99875.06
2022-10-15T16:51:55.940Z,99873.00
2022-10-15T16:54:22.705Z,99858.41
2022-10-15T16:56:52.767Z,99863.56
2022-10-15T16:59:20.243Z,99863.81
2022-10-15T17:01:47.031Z,99867.66
2022-10-15T17:04:14.193Z,99874.31
2022-10-15T17:06:41.252Z,99888.50
2022-10-15T17:09:08.125Z,99901.63
2022-10-15T17:11:38.595Z,99903.00
2022-10-15T17:14:10.665Z,99914.97
2022-10-15T17:16:39.994Z,99916.13
2022-10-15T17:19:07.965Z,99921.72
2022-10-15T17:21:36.104Z,99923.88
2022-10-15T17:24:05.210Z,99931.66
2022-10-15T17:26:36.261Z,99937.22
2022-10-15T17:29:04.587Z,99941.38
2022-10-15T17:31:31.980Z,99960.06
2022-10-15T17:34:02.513Z,99968.09
2022-10-15T17:36:31.622Z,99974.56
2022-10-15T17:38:59.702Z,99974.56
2022-10-15T17:41:28.555Z,99974.81
2022-10-15T17:43:55.545Z,99991.78
2022-10-15T17:46:25.528Z,100000.47
2022-10-15T17:48:53.391Z,100009.91
2022-10-15T17:51:22.457Z,100016.38
2022-10-15T17:53:54.079Z,100026.28
2022-10-15T17:56:23.607Z,100022.25
2022-10-15T17:58:51.209Z,100020.06
2022-10-15T18:01:39.416Z,100008.47
2022-10-15T18:04:14.851Z,100023.22
2022-10-15T18:06:45.413Z,100016.19
2022-10-15T18:09:25.335Z,100016.84
2022-10-15T18:11:55.927Z,100023.53
2022-10-15T18:14:29.128Z,100030.72
2022-10-15T18:16:55.782Z,100031.94
2022-10-15T18:19:22.693Z,100037.41
2022-10-15T18:21:49.721Z,100045.06
2022-10-15T18:24:20.942Z,100044.34
2022-10-15T18:26:47.613Z,100047.13
2022-10-15T18:29:14.517Z,100049.81
2022-10-15T18:31:43.132Z,100048.25
2022-10-15T18:34:10.051Z,100046.16
2022-10-15T18:36:37.715Z,100054.31
2022-10-15T18:39:04.256Z,100051.28
2022-10-15T18:41:33.478Z,100055.50
2022-10-15T18:44:03.454Z,100052.47
2022-10-15T18:46:33.985Z,100058.03
2022-10-15T18:49:01.714Z,100060.53
2022-10-15T18:51:30.944Z,100067.41
2022-10-15T18:53:59.569Z,100064.03
2022-10-15T18:56:27.073Z,100069.34
2022-10-15T18:58:53.605Z,100068.94
2022-10-15T19:01:30.612Z,100074.16
2022-10-15T19:04:00.392Z,100086.91
2022-10-15T19:06:30.270Z,100080.56
2022-10-15T19:08:57.993Z,100077.63
2022-10-15T19:11:26.866Z,100076.56
2022-10-15T19:13:55.959Z,100074.44
2022-10-15T19:16:22.483Z,100071.50
2022-10-15T19:18:49.081Z,100076.63
2022-10-15T19:21:15.583Z,100073.25
2022-10-15T19:23:42.220Z,100075.53
2022-10-15T19:26:10.560Z,100076.78
2022-10-15T19:28:37.610Z,100073.09
2022-10-15T19:31:06.618Z,100075.47
2022-10-15T19:33:35.705Z,100093.81
2022-10-15T19:36:02.275Z,100086.06
2022-10-15T19:38:28.936Z,100093.06
2022-10-15T19:40:55.751Z,100095.31
2022-10-15T19:43:23.747Z,100098.19
2022-10-15T19:45:50.364Z,100098.28
2022-10-15T19:48:19.201Z,100105.09
2022-10-15T19:50:47.178Z,100105.22
2022-10-15T19:53:16.514Z,100100.38
2022-10-15T19:55:44.646Z,100106.38
2022-10-15T19:58:11.553Z,100101.19
2022-10-15T20:00:38.863Z,100103.31
2022-10-15T20:03:05.499Z,100108.13
2022-10-15T20:05:32.287Z,100108.53
2022-10-15T20:08:00.603Z,100105.59
2022-10-15T20:10:27.353Z,100114.88
2022-10-15T20:12:53.955Z,100109.31
2022-10-15T20:15:20.770Z,100107.38
2022-10-15T20:17:47.943Z,100120.50
2022-10-15T20:20:15.003Z,100106.94
2022-10-15T20:22:41.789Z,100120.28
2022-10-15T20:25:08.831Z,100109.66
2022-10-15T20:27:35.869Z,100123.06
2022-10-15T20:30:03.562Z,100129.38
2022-10-15T20:32:34.618Z,100136.63
2022-10-15T20:35:03.975Z,100139.47
2022-10-15T20:37:30.688Z,100143.78
2022-10-15T20:42:28.897Z,100149.19
2022-10-15T20:44:55.660Z,100155.25
2022-10-15T20:47:23.657Z,100150.94
2022-10-15T20:49:53.083Z,100146.56
2022-10-15T20:52:22.182Z,100148.09
2022-10-15T20:54:49.833Z,100148.25
2022-10-15T20:57:16.575Z,100154.59
2022-10-15T20:59:43.161Z,100155.50
2022-10-15T21:02:10.241Z,100164.09
2022-10-15T21:04:37.472Z,100177.22
2022-10-15T21:07:04.677Z,100174.94
2022-10-15T21:09:31.492Z,100170.38
2022-10-15T21:11:58.149Z,100177.22
2022-10-15T21:14:24.912Z,100177.66
2022-10-15T21:16:51.600Z,100185.81
2022-10-15T21:19:18.219Z,100185.31
2022-10-15T21:21:45.277Z,100191.56
2022-10-15T21:24:12.782Z,100188.44
2022-10-15T21:26:39.642Z,100196.44
2022-10-15T21:29:11.299Z,100197.69
2022-10-15T21:31:38.012Z,100193.34
2022-10-15T21:34:04.714Z,100213.72
2022-10-15T21:36:31.896Z,100215.13
2022-10-15T21:39:04.169Z,100215.75
2022-10-15T21:41:32.243Z,100219.09
2022-10-15T21:44:00.605Z,100225.75
2022-10-15T21:46:28.317Z,100222.16
2022-10-15T21:48:55.130Z,100229.88
2022-10-15T21:51:25.125Z,100222.00
2022-10-15T21:53:52.830Z,100231.25
2022-10-15T21:56:20.044Z,100228.03
2022-10-15T21:58:47.207Z,100237.72
2022-10-15T22:01:20.750Z,100231.97
2022-10-15T22:03:49.374Z,100238.03
2022-10-15T22:06:17.093Z,100233.75
2022-10-15T22:08:44.590Z,100238.91
2022-10-15T22:11:20.825Z,100238.19
2022-10-15T22:13:49.701Z,100242.97
2022-10-15T22:16:18.354Z,100241.69
2022-10-15T22:18:46.732Z,100241.03
2022-10-15T22:21:25.890Z,100236.63
2022-10-15T22:23:53.933Z,100232.00
2022-10-15T22:26:22.556Z,100234.72
2022-10-15T22:28:51.625Z,100239.59
2022-10-15T22:31:18.544Z,100241.69
2022-10-15T22:33:46.054Z,100241.19
2022-10-15T22:36:18.858Z,100237.41
2022-10-15T22:38:48.195Z,100239.09
2022-10-15T22:41:15.574Z,100238.41
2022-10-15T22:43:42.535Z,100234.19
2022-10-15T22:46:10.115Z,100233.94
2022-10-15T22:48:39.474Z,100233.84
2022-10-15T22:51:07.925Z,100227.34
2022-10-15T22:53:34.953Z,100238.03
2022-10-15T22:56:03.787Z,100234.66
2022-10-15T22:58:31.821Z,100235.94
2022-10-15T23:01:15.332Z,100243.59
2022-10-15T23:03:44.535Z,100242.47
2022-10-15T23:06:11.992Z,100241.16
2022-10-15T23:08:39.101Z,100234.34
2022-10-15T23:11:09.276Z,100244.63
2022-10-15T23:13:38.038Z,100245.97
2022-10-15T23:16:15.664Z,100236.03
2022-10-15T23:18:44.137Z,100250.28
2022-10-15T23:21:17.067Z,100244.63
2022-10-15T23:23:45.365Z,100244.81
2022-10-15T23:26:14.511Z,100248.84
2022-10-15T23:28:42.339Z,100256.09
2022-10-15T23:31:19.185Z,100258.78
2022-10-15T23:33:46.598Z,100256.69
2022-10-15T23:36:13.685Z,100257.19
2022-10-15T23:38:40.402Z,100258.78
2022-10-15T23:41:09.747Z,100247.16
2022-10-15T23:43:36.668Z,100248.16
2022-10-15T23:46:03.693Z,100254.22
2022-10-15T23:48:30.607Z,100261.94
2022-10-15T23:51:00.923Z,100259.56
2022-10-15T23:53:32.943Z,100265.81
2022-10-15T23:56:01.753Z,100258.09
2022-10-15T23:58:28.364Z,100264.44
